Stanhope, NJ

4:13 PM EST on January 30, 2015 (GMT -0500)
Hopatcong, NJ | Change Station
CLOSE
Current Station
Personal Weather Station
Location: Hopatcong, NJ
Elevation: 960 ft
Nearby Weather Stations

Elev 960 ft 40.92 °N, 74.68 °W | Updated 2 seconds ago

Overcast
Overcast
31.1 °F
Feels Like 21 °F
N
13.0
Wind Variable Wind from WNW
Gusts 15.0 mph

Today
High -- | Low -- °F
--% Chance of Precip.
Yesterday
High -- | Low -- °F
Precip. -- in
7:11 AM 5:13 PM
Waxing Gibbous, 85% visible
Pressure 29.88 in
Visibility 10.0 miles
Clouds Scattered Clouds 4500 ft
Scattered Clouds 5000 ft
Windchill 21 °F
Dew Point 20 °F
Humidity 62%
Rainfall 0.02 in
Snow Depth Not available.
UV 0.0 out of 12
Pollen .10 out of 12
Air Quality Not available.
Flu Activity Not available.
METAR KMMU 302045Z 34014G23KT 10SM SCT045 SCT050 02/M09 A2988

More Conditions Fewer Conditions

Pressure 29.88 in
Visibility 10.0 miles
Clouds Scattered Clouds 4500 ft
Scattered Clouds 5000 ft
Windchill 21 °F
Dew Point 20 °F
Humidity 62%
Rainfall 0.02 in
Snow Depth Not available.
UV 0.0 out of 12
Pollen .10 out of 12
Air Quality Not available.
Flu Activity Not available.
METAR KMMU 302045Z 34014G23KT 10SM SCT045 SCT050 02/M09 A2988

More Conditions Fewer Conditions

Nowcast | as of 2:41 PM EST on January 30, 2015

Scattered snow showers, of varying intensities, are pushing in from the northwest into southeast Pennsylvania and north-central New Jersey. A few of the showers may produce a brief burst of moderate to heavy snow reducing visibilities to less than 1 mile at times. Gusty northwest winds, in excess of 35 mph, will also allow for some snow drifting to occur across area roadways.

×

10-Day Weather Forecast

Almanac

Astronomy

Jan. 30, 2015 Rise Set
Actual Time
Civil Twilight
Nautical Twilight
Astronomical Twilight
Moon
Length of Visible Light
Length of Day
Tomorrow will be .
, % of the Moon is Illuminated

Today's Extremes

State Highs State Lows

Community

WunderPhotos

Upload Photos

1,791,895 photos uploaded!

WunderBlogs® & News

Nearby

Air Quality

  Air Quality AQ Index Pollutant
Not available.

Snow Depth

Station Depth Elevation

Earthquake Activity

City Distance Mag. Time & Date
Minimum magnitude displayed is 2.5.

Coastal Water Temperatures

Place Temperature

Nearby Weather Stations